Time;durP1;ratioP1;P1;durP2;ratioP2;P2;SDS_P1;SDS_P2;PMS_P1;PMS_P2;Temp;Humidity;BMP_temperature;BMP_pressure;BME280_temperature;BME280_humidity;BME280_pressure;Samples;Min_cycle;Max_cycle;Signal;HPM_P1;HPM_P2
2023/05/04 00:01:10;;;;;;;;;23.00;21.00;;;;;12.72;100.00;100043.81;6313600;20;2841908;-57
2023/05/04 00:03:39;;;;;;;;;22.00;21.33;;;;;12.76;100.00;100032.81;6280384;20;2839898;-58
2023/05/04 00:06:07;;;;;;;;;24.00;21.00;;;;;12.76;100.00;100033.69;6309140;20;2838883;-54
2023/05/04 00:08:35;;;;;;;;;22.00;21.00;;;;;12.48;100.00;100040.88;6283263;20;3567202;-56
2023/05/04 00:11:04;;;;;;;;;25.00;22.33;;;;;12.44;100.00;100033.06;6316440;20;3584606;-56
2023/05/04 00:13:32;;;;;;;;;20.00;20.00;;;;;12.55;100.00;100033.25;6282080;20;2842053;-55
2023/05/04 00:16:00;;;;;;;;;19.00;19.00;;;;;12.36;100.00;100046.16;6279812;20;2844149;-56
2023/05/04 00:18:28;;;;;;;;;22.00;20.50;;;;;12.38;100.00;100038.84;6282653;20;2840890;-54
2023/05/04 00:20:56;;;;;;;;;21.50;21.50;;;;;12.28;100.00;100038.56;6281335;20;2843171;-57
2023/05/04 00:23:25;;;;;;;;;22.50;19.50;;;;;12.28;100.00;100039.41;6283386;20;2840869;-53
2023/05/04 00:25:53;;;;;;;;;22.00;22.00;;;;;12.13;100.00;100034.13;6279457;20;2844162;-56
2023/05/04 00:28:21;;;;;;;;;21.67;18.00;;;;;12.14;100.00;100041.22;6284279;20;3566967;-57
2023/05/04 00:30:52;;;;;;;;;24.00;20.67;;;;;12.08;100.00;100045.19;6314199;20;3571079;-54
2023/05/04 00:33:20;;;;;;;;;18.00;18.00;;;;;12.11;100.00;100036.06;6315526;20;3570026;-56
2023/05/04 00:35:49;;;;;;;;;23.00;22.00;;;;;12.13;100.00;100034.13;6311579;20;2842963;-55
2023/05/04 00:38:18;;;;;;;;;23.00;21.00;;;;;12.22;100.00;100031.75;6282038;20;2838853;-58
2023/05/04 00:40:46;;;;;;;;;17.50;17.50;;;;;12.38;100.00;100033.47;6277338;20;2832609;-55
2023/05/04 00:43:14;;;;;;;;;22.50;21.00;;;;;12.35;100.00;100034.53;6280986;20;2833700;-55
2023/05/04 00:45:43;;;;;;;;;19.50;19.50;;;;;12.14;100.00;100025.09;6279807;20;2835787;-52
2023/05/04 00:48:11;;;;;;;;;20.00;18.50;;;;;12.20;100.00;100038.19;6279325;20;2841992;-55
2023/05/04 00:50:40;;;;;;;;;19.50;19.50;;;;;12.14;100.00;100030.47;6280531;20;2828386;-55
2023/05/04 00:53:10;;;;;;;;;23.00;21.00;;;;;12.23;100.00;100035.28;6281134;20;2839904;-52
2023/05/04 00:55:39;;;;;;;;;22.50;20.50;;;;;12.03;100.00;100029.34;6277382;20;2836946;-56
2023/05/04 00:58:10;;;;;;;;;21.00;21.00;;;;;12.10;100.00;100035.19;6278573;20;2500416;-57
2023/05/04 01:00:38;;;;;;;;;21.00;21.00;;;;;12.06;100.00;100031.84;6278108;20;2841993;-52
2023/05/04 01:03:08;;;;;;;;;19.00;19.00;;;;;12.01;100.00;100031.25;6279669;20;2500439;-54
2023/05/04 01:05:48;;;;;;;;;23.00;20.50;;;;;11.84;100.00;100029.56;6276385;20;2828554;-57
2023/05/04 01:08:29;;;;;;;;;19.50;19.50;;;;;12.05;100.00;100029.22;6277709;20;2842008;-56
2023/05/04 01:11:06;;;;;;;;;24.00;24.00;;;;;11.90;100.00;100039.13;6278273;20;2840944;-55
2023/05/04 01:13:34;;;;;;;;;22.50;22.50;;;;;12.11;100.00;100031.53;6280080;20;2843054;-52
2023/05/04 01:16:04;;;;;;;;;26.00;21.50;;;;;11.88;100.00;100030.28;6274376;20;2846113;-51
2023/05/04 01:18:32;;;;;;;;;22.00;22.00;;;;;11.71;100.00;100027.72;6286811;20;2833627;-52
2023/05/04 01:21:00;;;;;;;;;21.00;20.50;;;;;11.69;100.00;100026.94;6283468;20;2841949;-53
2023/05/04 01:23:29;;;;;;;;;30.00;24.00;;;;;11.77;100.00;100033.59;6286032;20;2854481;-56
2023/05/04 01:26:13;;;;;;;;;25.50;21.00;;;;;11.90;100.00;100033.75;6283537;20;2837989;-57
2023/05/04 01:28:49;;;;;;;;;24.00;23.50;;;;;11.92;100.00;100029.13;6281390;20;2500299;-56
2023/05/04 01:31:22;;;;;;;;;22.50;21.50;;;;;11.94;100.00;100035.28;6279213;20;2846558;-56
2023/05/04 01:33:53;;;;;;;;;21.00;21.00;;;;;11.79;100.00;100025.41;6285808;20;2830463;-55
2023/05/04 01:36:21;;;;;;;;;25.00;22.00;;;;;11.90;100.00;100032.84;6280951;20;2500420;-51
2023/05/04 01:38:54;;;;;;;;;24.50;23.50;;;;;11.87;100.00;100023.16;6284778;20;2845173;-54
2023/05/04 01:41:23;;;;;;;;;25.00;21.00;;;;;11.84;100.00;100017.94;6280359;20;2843035;-50
2023/05/04 01:43:53;;;;;;;;;23.00;22.00;;;;;11.84;100.00;100018.78;6283523;20;2836742;-56
2023/05/04 01:46:21;;;;;;;;;27.00;25.00;;;;;11.84;100.00;100016.09;6282494;20;2850282;-55
2023/05/04 01:48:49;;;;;;;;;18.50;18.50;;;;;11.99;100.00;100019.72;6286809;20;2823196;-56
2023/05/04 01:51:18;;;;;;;;;25.50;23.50;;;;;11.95;100.00;100015.47;6281774;20;2850408;-56
2023/05/04 01:53:46;;;;;;;;;18.00;18.00;;;;;12.08;100.00;100011.09;6284016;20;2833004;-52
2023/05/04 01:56:14;;;;;;;;;27.00;24.00;;;;;11.97;100.00;100018.06;6282689;20;2845185;-52
2023/05/04 01:58:42;;;;;;;;;17.00;17.00;;;;;11.96;100.00;100003.75;6283482;20;2546147;-55
2023/05/04 02:01:10;;;;;;;;;21.00;19.00;;;;;12.05;100.00;100008.56;6314008;20;2830601;-53
2023/05/04 02:03:39;;;;;;;;;18.50;18.50;;;;;11.91;100.00;100016.63;6283174;20;2829443;-56
2023/05/04 02:06:08;;;;;;;;;23.50;21.00;;;;;11.92;100.00;100010.28;6284748;20;2829489;-53
2023/05/04 02:08:35;;;;;;;;;19.00;15.00;;;;;11.64;100.00;100005.72;6288041;20;2816945;-55
2023/05/04 02:11:03;;;;;;;;;19.33;17.67;;;;;11.70;100.00;100004.47;6285201;20;3560697;-57
2023/05/04 02:13:31;;;;;;;;;19.00;18.00;;;;;11.69;100.00;100010.78;6283862;20;2820199;-53
2023/05/04 02:16:00;;;;;;;;;25.00;19.00;;;;;11.68;100.00;100003.69;6282528;20;2829618;-53
2023/05/04 02:18:27;;;;;;;;;20.50;19.00;;;;;11.70;100.00;100005.34;6282199;20;2496306;-55
2023/05/04 02:20:55;;;;;;;;;22.00;21.00;;;;;11.60;100.00;99999.63;6283420;20;2835723;-55
2023/05/04 02:23:23;;;;;;;;;22.50;20.00;;;;;11.61;100.00;100003.19;6284531;20;2844176;-53
2023/05/04 02:25:53;;;;;;;;;22.50;22.50;;;;;11.50;100.00;99997.59;6283413;20;2831833;-55
2023/05/04 02:28:21;;;;;;;;;21.00;21.00;;;;;11.56;100.00;99998.13;6279848;20;2500285;-52
2023/05/04 02:30:49;;;;;;;;;22.50;21.00;;;;;11.41;100.00;99996.34;6283238;20;2846156;-54
2023/05/04 02:33:17;;;;;;;;;22.50;17.00;;;;;11.47;100.00;99997.78;6283495;20;2827399;-55
2023/05/04 02:35:45;;;;;;;;;22.00;20.50;;;;;11.51;100.00;99994.84;6283225;20;2841006;-54
2023/05/04 02:38:14;;;;;;;;;20.00;19.00;;;;;11.44;100.00;99993.47;6278529;20;2832313;-55
2023/05/04 02:40:42;;;;;;;;;19.00;18.00;;;;;11.28;100.00;100000.72;6279058;20;2827393;-55
2023/05/04 02:43:09;;;;;;;;;25.00;21.50;;;;;11.39;100.00;100003.63;6282336;20;2489826;-59
2023/05/04 02:45:36;;;;;;;;;20.00;20.00;;;;;11.22;100.00;99999.28;6280677;20;2500322;-58
2023/05/04 02:48:05;;;;;;;;;19.00;17.00;;;;;11.20;100.00;99995.81;6282030;20;2831530;-59
2023/05/04 02:50:32;;;;;;;;;19.00;19.00;;;;;11.34;100.00;100003.03;6281174;20;2500291;-59
2023/05/04 02:53:00;;;;;;;;;20.50;20.50;;;;;11.27;100.00;99996.28;6279502;20;2826374;-58
2023/05/04 02:55:28;;;;;;;;;19.50;18.00;;;;;11.32;100.00;99994.19;6282359;20;2500352;-59
2023/05/04 02:57:55;;;;;;;;;22.00;21.00;;;;;11.39;100.00;99998.25;6278098;20;2500286;-59
2023/05/04 03:00:23;;;;;;;;;19.00;18.33;;;;;11.25;100.00;99993.72;6283342;20;3573176;-59
2023/05/04 03:02:52;;;;;;;;;22.00;20.50;;;;;11.28;100.00;99998.03;6283879;20;2833738;-59
2023/05/04 03:05:19;;;;;;;;;17.50;17.50;;;;;11.25;100.00;99998.22;6280796;20;2492041;-59
2023/05/04 03:07:49;;;;;;;;;18.00;18.00;;;;;11.23;100.00;99992.06;6284632;20;2835758;-58
2023/05/04 03:10:17;;;;;;;;;21.00;21.00;;;;;11.23;100.00;99997.44;6280361;20;2837887;-58
2023/05/04 03:12:45;;;;;;;;;18.00;18.00;;;;;11.11;100.00;99991.84;6280323;20;2500278;-58
2023/05/04 03:15:13;;;;;;;;;21.00;21.00;;;;;10.81;100.00;99994.47;6282985;20;2848221;-59
2023/05/04 03:17:40;;;;;;;;;17.00;17.00;;;;;10.82;100.00;99996.22;6279078;20;2500416;-59
2023/05/04 03:20:11;;;;;;;;;20.50;19.00;;;;;10.89;100.00;99992.22;6278163;20;2832585;-59
2023/05/04 03:22:39;;;;;;;;;20.00;20.00;;;;;10.73;100.00;99994.91;6281288;20;2839908;-59
2023/05/04 03:25:08;;;;;;;;;21.00;20.00;;;;;10.95;100.00;99993.69;6280525;20;2852551;-58
2023/05/04 03:27:36;;;;;;;;;22.50;20.00;;;;;10.69;100.00;99996.06;6281728;20;2838853;-59
2023/05/04 03:30:05;;;;;;;;;22.00;20.50;;;;;10.69;100.00;99997.84;6283832;20;2842957;-53
2023/05/04 03:32:34;;;;;;;;;21.00;20.00;;;;;10.74;100.00;99983.25;6279008;20;2843998;-59
2023/05/04 03:35:03;;;;;;;;;24.50;21.00;;;;;10.83;100.00;99991.72;6283595;20;2848232;-59
2023/05/04 03:37:31;;;;;;;;;19.50;19.50;;;;;10.82;100.00;99993.53;6278855;20;2835743;-58
2023/05/04 03:39:58;;;;;;;;;23.50;21.00;;;;;10.99;100.00;99992.56;6277479;20;2487796;-58
2023/05/04 03:42:26;;;;;;;;;17.00;17.00;;;;;10.89;100.00;99994.03;6282803;20;2838183;-59
2023/05/04 03:44:54;;;;;;;;;18.67;17.67;;;;;10.93;100.00;100001.84;6280084;20;3557681;-58
2023/05/04 03:47:22;;;;;;;;;18.00;18.00;;;;;10.92;100.00;100004.59;6281701;20;3564857;-58
2023/05/04 03:49:50;;;;;;;;;19.00;19.00;;;;;10.96;100.00;100003.47;6281146;20;2491997;-58
2023/05/04 03:52:17;;;;;;;;;16.50;16.00;;;;;10.97;100.00;100008.75;6280504;20;2500375;-59
2023/05/04 03:54:45;;;;;;;;;17.33;15.67;;;;;10.91;100.00;100010.94;6281105;20;3552348;-58
2023/05/04 03:57:13;;;;;;;;;18.00;14.50;;;;;11.03;100.00;100015.59;6281337;20;2819134;-58
2023/05/04 03:59:40;;;;;;;;;16.00;15.00;;;;;11.16;100.00;100016.63;6276763;20;2487862;-59
2023/05/04 04:02:08;;;;;;;;;16.50;14.00;;;;;11.17;100.00;100021.03;6280239;20;2498649;-56
2023/05/04 04:04:36;;;;;;;;;11.33;11.33;;;;;11.29;100.00;100023.94;6274694;20;2791972;-58
2023/05/04 04:07:03;;;;;;;;;12.00;12.00;;;;;11.38;100.00;100031.47;6313399;20;2805516;-59
2023/05/04 04:09:31;;;;;;;;;16.33;16.33;;;;;11.24;100.00;100031.41;6278087;20;3554575;-59
2023/05/04 04:12:01;;;;;;;;;12.33;12.33;;;;;11.69;100.00;100033.19;6311903;20;3536728;-58
2023/05/04 04:14:28;;;;;;;;;14.50;13.50;;;;;12.13;99.31;100039.50;6315893;20;2787784;-58
2023/05/04 04:16:56;;;;;;;;;15.00;15.00;;;;;13.47;92.44;100032.56;6281079;20;2798267;-59
2023/05/04 04:19:23;;;;;;;;;8.00;8.00;;;;;13.73;86.85;100041.59;6312748;20;2746135;-59
2023/05/04 04:21:50;;;;;;;;;9.50;9.50;;;;;12.89;89.32;100040.00;6279535;20;2771163;-59
2023/05/04 04:24:18;;;;;;;;;10.50;9.00;;;;;13.18;89.64;100039.91;6282128;20;2767983;-59
2023/05/04 04:26:45;;;;;;;;;8.50;8.50;;;;;13.64;85.03;100044.94;6282832;20;2731513;-59
2023/05/04 04:29:12;;;;;;;;;7.00;7.00;;;;;12.70;89.78;100039.47;6286196;20;2739967;-59
2023/05/04 04:31:42;;;;;;;;;9.00;9.00;;;;;12.57;91.35;100038.53;6305669;20;2746223;-59
2023/05/04 04:34:09;;;;;;;;;10.50;8.00;;;;;12.91;89.86;100040.75;6312818;20;2772188;-59
2023/05/04 04:36:39;;;;;;;;;9.20;8.40;;;;;12.74;89.35;100049.06;6306897;20;2755614;-59
2023/05/04 04:39:06;;;;;;;;;8.00;7.00;;;;;12.73;89.35;100050.06;6283293;20;2738860;-58
2023/05/04 04:41:36;;;;;;;;;8.00;8.00;;;;;12.75;88.17;100053.53;6306136;20;2739970;-59
2023/05/04 04:44:03;;;;;;;;;8.00;8.00;;;;;13.47;86.68;100050.59;6315201;20;2741940;-58
2023/05/04 04:46:34;;;;;;;;;7.57;7.57;;;;;17.90;66.91;100068.06;6324786;20;3461719;-59
2023/05/04 04:49:06;;;;;;;;;8.71;7.43;;;;;19.27;59.31;100070.44;6356552;20;3445103;-57
2023/05/04 04:51:35;;;;;;;;;9.00;9.00;;;;;17.22;65.39;100067.50;6340696;20;2753412;-58
2023/05/04 04:54:02;;;;;;;;;6.50;6.50;;;;;17.08;65.96;100065.03;6320925;20;2736766;-57
2023/05/04 04:56:33;;;;;;;;;5.43;5.43;;;;;16.46;68.13;100067.28;6328234;20;3444039;-56
2023/05/04 04:59:02;;;;;;;;;7.00;7.00;;;;;15.73;71.13;100064.94;6345819;20;2733629;-56
2023/05/04 05:01:32;;;;;;;;;8.40;7.00;;;;;15.72;72.12;100068.66;6341997;20;2735711;-56
2023/05/04 05:03:59;;;;;;;;;8.00;7.00;;;;;15.66;71.15;100074.47;6320969;20;2741955;-56
2023/05/04 05:06:26;;;;;;;;;7.50;7.50;;;;;17.07;66.88;100085.03;6286208;20;2731556;-56
2023/05/04 05:08:54;;;;;;;;;6.50;6.50;;;;;17.36;63.02;100084.47;6289885;20;2746177;-51
2023/05/04 05:11:21;;;;;;;;;8.50;7.50;;;;;15.79;69.12;100076.16;6290117;20;2739913;-56
2023/05/04 05:13:48;;;;;;;;;7.50;7.50;;;;;15.62;71.57;100078.41;6290158;20;2739871;-51
2023/05/04 05:16:15;;;;;;;;;8.00;8.00;;;;;17.50;66.62;100086.88;6286900;20;2750314;-55
2023/05/04 05:18:43;;;;;;;;;9.00;8.00;;;;;19.33;58.23;100084.50;6291030;20;2749284;-58
2023/05/04 05:21:10;;;;;;;;;7.00;5.50;;;;;17.72;62.49;100096.78;6289340;20;2742071;-57
2023/05/04 05:23:39;;;;;;;;;9.60;8.80;;;;;19.48;57.18;100100.28;6312782;20;2766942;-58
2023/05/04 05:26:06;;;;;;;;;6.00;6.00;;;;;18.02;61.91;100098.78;6291049;20;2724270;-56
2023/05/04 05:28:36;;;;;;;;;6.50;5.75;;;;;17.47;63.82;100089.84;6320768;20;2744081;-55
2023/05/04 05:31:05;;;;;;;;;7.20;7.20;;;;;18.30;61.99;100096.38;6310907;20;2738915;-58
2023/05/04 05:33:33;;;;;;;;;8.50;8.50;;;;;19.46;57.13;100102.28;6325291;20;2752367;-58
2023/05/04 05:36:02;;;;;;;;;6.00;5.80;;;;;18.68;58.82;100095.72;6310882;20;2738030;-58
2023/05/04 05:38:33;;;;;;;;;7.71;6.86;;;;;17.96;61.65;100104.75;6363194;20;3455492;-58
2023/05/04 05:41:02;;;;;;;;;9.20;7.40;;;;;16.31;68.04;100101.03;6343244;20;2763937;-54
2023/05/04 05:43:32;;;;;;;;;8.00;7.00;;;;;16.31;68.62;100098.31;6288882;20;2736742;-57
2023/05/04 05:46:01;;;;;;;;;8.00;8.00;;;;;16.53;68.91;100102.03;6310326;20;2749330;-56
2023/05/04 05:48:30;;;;;;;;;9.00;7.40;;;;;16.68;69.11;100103.53;6341774;20;2753424;-57
2023/05/04 05:50:59;;;;;;;;;7.60;7.60;;;;;16.63;68.34;100094.91;6343789;20;2749275;-54
2023/05/04 05:53:26;;;;;;;;;8.50;7.00;;;;;16.99;67.43;100098.38;6319667;20;2736755;-57
2023/05/04 05:55:54;;;;;;;;;9.00;9.00;;;;;16.61;68.30;100105.00;6289394;20;2738951;-55
2023/05/04 05:58:24;;;;;;;;;7.29;7.29;;;;;16.78;68.07;100106.41;6331036;20;3458649;-55
2023/05/04 06:00:52;;;;;;;;;6.50;5.00;;;;;16.50;69.08;100107.72;6322456;20;2736754;-55
2023/05/04 06:03:20;;;;;;;;;19.50;18.50;;;;;17.83;65.20;100098.66;6289105;20;2835739;-56
2023/05/04 06:05:47;;;;;;;;;7.50;7.50;;;;;18.65;62.48;100106.88;6290005;20;2746133;-55
2023/05/04 06:08:17;;;;;;;;;9.00;7.80;;;;;18.58;62.27;100095.66;6314546;20;2736914;-53
2023/05/04 06:10:44;;;;;;;;;10.00;10.00;;;;;18.10;61.92;100100.84;6322611;20;2783616;-54
2023/05/04 06:13:11;;;;;;;;;9.00;9.00;;;;;17.11;66.40;100102.78;6292410;20;2756672;-55
2023/05/04 06:15:39;;;;;;;;;9.50;8.50;;;;;16.72;68.75;100099.59;6294310;20;2754459;-50
2023/05/04 06:18:08;;;;;;;;;8.60;8.60;;;;;16.60;68.56;100095.16;6313828;20;2762779;-57
2023/05/04 06:20:35;;;;;;;;;10.50;9.00;;;;;16.01;68.49;100091.63;6285069;20;2763896;-52
2023/05/04 06:23:02;;;;;;;;;7.50;7.50;;;;;16.51;67.93;100087.72;6291557;20;2735715;-54
2023/05/04 06:25:33;;;;;;;;;7.29;7.29;;;;;16.42;68.50;100092.91;6331631;20;3451305;-51
2023/05/04 06:28:02;;;;;;;;;9.40;6.80;;;;;16.74;66.98;100092.16;6341678;20;2744050;-55
2023/05/04 06:30:32;;;;;;;;;7.80;7.00;;;;;16.49;68.46;100100.56;6343541;20;2740960;-51
2023/05/04 06:33:01;;;;;;;;;9.80;8.80;;;;;17.57;65.78;100096.25;6341862;20;2769105;-55
2023/05/04 06:35:29;;;;;;;;;8.00;7.00;;;;;17.87;66.13;100098.22;6290421;20;2737758;-55
2023/05/04 06:37:58;;;;;;;;;8.00;8.00;;;;;17.80;66.32;100101.59;6312788;20;2756585;-54
2023/05/04 06:40:27;;;;;;;;;8.80;8.80;;;;;20.23;55.33;100113.34;6311877;20;2752367;-52
2023/05/04 06:42:56;;;;;;;;;8.20;8.20;;;;;23.48;46.77;100115.78;6313982;20;2750402;-52
2023/05/04 06:45:25;;;;;;;;;6.20;6.20;;;;;23.57;46.35;100123.00;6312425;20;2737784;-54
2023/05/04 06:47:54;;;;;;;;;7.60;7.60;;;;;22.03;48.66;100118.34;6342207;20;2744003;-51
2023/05/04 06:50:22;;;;;;;;;8.00;8.00;;;;;20.42;54.04;100120.63;6324645;20;2728463;-49
2023/05/04 06:52:51;;;;;;;;;8.80;8.80;;;;;21.74;51.45;100126.78;6343803;20;2749268;-52
2023/05/04 06:55:20;;;;;;;;;9.00;7.60;;;;;20.72;53.06;100125.91;6310004;20;2755557;-50
2023/05/04 06:57:50;;;;;;;;;11.00;9.00;;;;;20.88;51.95;100121.63;6287243;20;2764816;-50
2023/05/04 07:00:19;;;;;;;;;209.67;104.00;;;;;20.32;54.50;100126.09;6317984;20;3716956;-53
2023/05/04 07:02:48;;;;;;;;;7.60;6.60;;;;;21.67;50.94;100130.16;6313565;20;2746084;-52
2023/05/04 07:05:17;;;;;;;;;7.00;6.80;;;;;21.32;50.42;100138.25;6311434;20;2740906;-49
2023/05/04 07:07:47;;;;;;;;;5.60;5.60;;;;;20.83;52.34;100131.16;6313633;20;2733631;-50
2023/05/04 07:10:19;;;;;;;;;9.00;7.20;;;;;20.42;53.70;100128.81;6339726;20;2748393;-53
2023/05/04 07:12:48;;;;;;;;;9.20;9.20;;;;;20.86;52.34;100134.59;6339991;20;2739837;-52
2023/05/04 07:15:17;;;;;;;;;7.60;7.00;;;;;21.39;50.43;100142.13;6307622;20;2728405;-51
2023/05/04 07:17:47;;;;;;;;;23.67;12.00;;;;;21.33;50.90;100134.50;6312008;20;3552394;-54
2023/05/04 07:20:15;;;;;;;;;17.00;15.00;;;;;21.89;51.36;100138.91;6317788;20;3547215;-55
2023/05/04 07:22:44;;;;;;;;;6.60;6.60;;;;;21.27;50.81;100133.22;6308439;20;2744016;-50
2023/05/04 07:25:13;;;;;;;;;7.20;7.20;;;;;21.01;51.24;100133.97;6342980;20;2738895;-53
2023/05/04 07:27:43;;;;;;;;;6.60;6.60;;;;;21.41;50.71;100134.66;6311727;20;2735765;-55
2023/05/04 07:30:13;;;;;;;;;7.60;6.40;;;;;21.41;50.87;100140.97;6343700;20;2747393;-51
2023/05/04 07:32:44;;;;;;;;;8.00;8.00;;;;;21.18;50.20;100139.63;6335776;20;1792987;-53
2023/05/04 07:35:13;;;;;;;;;6.60;5.40;;;;;21.45;50.03;100142.34;6343284;20;2734660;-56
2023/05/04 07:37:41;;;;;;;;;9.00;9.00;;;;;22.02;48.57;100136.63;6324616;20;2758684;-49
2023/05/04 07:40:13;;;;;;;;;7.00;7.00;;;;;21.21;49.91;100137.44;6345675;20;2739988;-50
2023/05/04 07:42:42;;;;;;;;;10.20;8.20;;;;;21.42;50.16;100141.81;6310631;20;2768109;-52
2023/05/04 07:45:10;;;;;;;;;8.00;8.00;;;;;21.38;50.47;100137.66;6293952;20;2736788;-53
2023/05/04 07:47:39;;;;;;;;;6.60;6.60;;;;;22.15;49.25;100138.97;6341188;20;2736129;-50
2023/05/04 07:50:08;;;;;;;;;9.33;7.00;;;;;22.09;48.62;100140.44;6283460;20;2754548;-51
2023/05/04 07:52:37;;;;;;;;;8.80;8.20;;;;;20.91;50.94;100133.13;6341461;20;2752369;-49
2023/05/04 07:55:06;;;;;;;;;12.33;7.00;;;;;21.72;50.77;100137.84;6287955;20;2793981;-54
2023/05/04 07:57:36;;;;;;;;;8.67;8.67;;;;;21.29;51.93;100135.81;6314111;20;2752396;-50
2023/05/04 08:00:07;;;;;;;;;7.00;7.00;;;;;21.78;50.55;100128.19;6341440;20;2732597;-53
2023/05/04 08:02:38;;;;;;;;;106.00;100.63;;;;;21.05;51.58;100129.91;6307838;20;3696291;-49
2023/05/04 08:05:07;;;;;;;;;12.00;10.67;;;;;21.64;50.47;100130.47;6283813;20;3509723;-51
2023/05/04 08:07:35;;;;;;;;;12.00;10.33;;;;;21.86;49.36;100136.47;6314198;20;3514851;-49
2023/05/04 08:10:04;;;;;;;;;7.00;7.00;;;;;21.90;49.32;100138.72;6324196;20;2734752;-50
2023/05/04 08:12:33;;;;;;;;;8.60;8.60;;;;;21.47;49.63;100134.03;6333751;20;2738832;-52
2023/05/04 08:15:03;;;;;;;;;7.00;7.00;;;;;21.35;50.36;100129.75;6285813;20;2744160;-51
2023/05/04 08:17:33;;;;;;;;;4.20;2.80;;;;;21.16;50.47;100134.28;6341578;20;2742008;-51
2023/05/04 08:20:01;;;;;;;;;12.00;11.00;;;;;20.94;53.21;100121.91;6319622;20;2786888;-53
2023/05/04 08:22:31;;;;;;;;;8.20;7.20;;;;;20.44;52.60;100130.38;6342740;20;2754546;-52
2023/05/04 08:25:00;;;;;;;;;7.60;7.60;;;;;20.44;53.50;100135.84;6310356;20;2746121;-53
2023/05/04 08:27:28;;;;;;;;;14.00;11.67;;;;;21.13;52.38;100136.47;6281752;20;2796281;-52
2023/05/04 08:29:57;;;;;;;;;7.20;7.20;;;;;21.84;50.05;100141.25;6342153;20;2748213;-50
2023/05/04 08:32:26;;;;;;;;;9.40;8.00;;;;;21.78;49.76;100142.72;6311037;20;2751442;-50
2023/05/04 08:34:55;;;;;;;;;12.00;11.00;;;;;21.69;48.86;100139.03;6286018;20;2483598;-52
2023/05/04 08:37:24;;;;;;;;;78.75;69.25;;;;;21.72;49.80;100135.13;6315869;20;4422169;-49
2023/05/04 08:39:52;;;;;;;;;8.00;8.00;;;;;21.25;50.76;100141.59;6315410;20;2746195;-48
2023/05/04 08:42:31;;;;;;;;;38.00;33.67;;;;;21.74;49.93;100134.97;6317074;20;1904359;-50
2023/05/04 08:45:01;;;;;;;;;110.33;99.33;;;;;21.84;49.95;100146.69;6314599;20;3687900;-48
2023/05/04 08:47:30;;;;;;;;;36.67;31.33;;;;;21.68;49.23;100141.94;6281002;20;3607631;-50
2023/05/04 08:49:58;;;;;;;;;29.00;27.67;;;;;22.64;47.65;100141.22;6314502;20;3591295;-49
2023/05/04 08:52:27;;;;;;;;;13.00;9.67;;;;;22.29;47.94;100145.75;6282447;20;3503497;-51
2023/05/04 08:54:56;;;;;;;;;8.00;8.00;;;;;23.16;47.68;100143.94;6313656;20;3359637;-51
2023/05/04 08:57:26;;;;;;;;;9.00;9.00;;;;;22.46;47.54;100144.88;6339076;20;2748358;-49
2023/05/04 08:59:54;;;;;;;;;8.00;8.00;;;;;22.60;47.00;100135.22;6280964;20;2748274;-48
2023/05/04 09:02:23;;;;;;;;;9.00;9.00;;;;;22.31;47.78;100143.75;6314363;20;2741992;-48
2023/05/04 09:04:53;;;;;;;;;11.00;10.33;;;;;21.89;47.41;100138.91;6315146;20;3509755;-50
2023/05/04 09:07:21;;;;;;;;;21.00;21.00;;;;;22.35;47.61;100128.69;6283445;20;3581559;-50
2023/05/04 09:09:50;;;;;;;;;6.67;6.67;;;;;21.61;49.92;100130.75;6287559;20;2736706;-48
2023/05/04 09:12:19;;;;;;;;;8.00;8.00;;;;;22.23;48.95;100135.47;6333629;20;2754413;-49
2023/05/04 09:14:48;;;;;;;;;7.00;7.00;;;;;22.35;48.53;100139.66;6307576;20;2738952;-51
2023/05/04 09:17:28;;;;;;;;;7.40;7.40;;;;;21.83;47.66;100134.06;6309605;20;2739857;-53
2023/05/04 09:20:02;;;;;;;;;6.20;6.20;;;;;22.11;48.71;100135.66;6338943;20;2741946;-46
2023/05/04 09:22:32;;;;;;;;;6.80;6.40;;;;;20.95;50.55;100129.09;6311019;20;2739891;-51
2023/05/04 09:25:19;;;;;;;;;8.00;8.00;;;;;21.73;48.91;100133.28;6308485;20;2749369;-55
2023/05/04 09:27:55;;;;;;;;;20.33;20.00;;;;;21.68;50.54;100131.84;6281092;20;3576436;-49
2023/05/04 09:30:23;;;;;;;;;15.00;15.00;;;;;21.31;50.52;100128.34;6311658;20;2491977;-53
2023/05/04 09:32:51;;;;;;;;;7.67;7.67;;;;;21.21;50.66;100131.97;6311272;20;2751321;-47
2023/05/04 09:35:30;;;;;;;;;9.40;9.40;;;;;20.60;52.21;100130.66;6340526;20;2779541;-51
2023/05/04 09:38:01;;;;;;;;;9.00;9.00;;;;;21.72;50.38;100124.19;6286842;20;2753470;-49
2023/05/04 09:40:41;;;;;;;;;10.00;8.33;;;;;22.97;47.92;100124.00;6321687;20;2762772;-49
2023/05/04 09:43:09;;;;;;;;;9.33;8.00;;;;;22.09;48.10;100124.03;6321391;20;2757681;-46
2023/05/04 09:45:46;;;;;;;;;14.00;12.00;;;;;22.84;46.48;100119.97;6319986;20;2809875;-47
2023/05/04 09:48:19;;;;;;;;;9.67;9.67;;;;;21.92;48.01;100116.69;6314892;20;2781574;-47
2023/05/04 09:51:01;;;;;;;;;7.80;7.80;;;;;22.53;46.56;100115.81;6344745;20;2746084;-48
2023/05/04 09:53:30;;;;;;;;;8.00;8.00;;;;;22.71;47.64;100117.66;6283829;20;3470163;-47
2023/05/04 09:56:20;;;;;;;;;9.40;9.40;;;;;23.12;46.56;100096.84;6341661;20;2764854;-50
2023/05/04 09:58:56;;;;;;;;;72.25;60.63;;;;;23.41;47.23;100101.06;6283219;20;3654527;-45
2023/05/04 10:01:28;;;;;;;;;13.00;11.00;;;;;22.32;49.28;100096.19;6288862;20;2799454;-46
2023/05/04 10:03:57;;;;;;;;;8.00;7.00;;;;;22.43;49.91;100098.66;6320793;20;2767477;-51
2023/05/04 10:06:29;;;;;;;;;9.00;9.00;;;;;22.23;48.91;100089.81;6324400;20;2749403;-50
2023/05/04 10:08:59;;;;;;;;;9.33;9.33;;;;;21.82;49.96;100100.38;6321857;20;2761761;-47
2023/05/04 10:11:27;;;;;;;;;10.00;10.00;;;;;21.44;51.73;100091.47;6316380;20;3512092;-47
2023/05/04 10:13:56;;;;;;;;;9.00;8.00;;;;;21.24;50.81;100090.69;6282420;20;2771122;-46
2023/05/04 10:16:49;;;;;;;;;12.00;11.00;;;;;22.98;46.60;100081.88;6315988;20;2790012;-47
2023/05/04 10:20:02;;;;;;;;;19.00;16.00;;;;;23.12;48.23;100090.50;6308349;20;2485697;-50
2023/05/04 10:22:59;;;;;;;;;10.60;10.60;;;;;22.06;49.38;100083.31;6340766;20;2792023;-51
2023/05/04 10:25:43;;;;;;;;;9.60;9.60;;;;;21.63;50.05;100079.53;6311326;20;2777363;-55
2023/05/04 10:28:14;;;;;;;;;11.00;9.00;;;;;21.77;51.15;100080.00;6298804;20;2728445;-55
2023/05/04 10:30:43;;;;;;;;;10.00;10.00;;;;;21.74;49.77;100070.22;6341329;20;2795123;-51
2023/05/04 10:33:12;;;;;;;;;9.00;9.00;;;;;21.42;50.38;100077.09;6282272;20;3471098;-57
2023/05/04 10:35:53;;;;;;;;;10.00;10.00;;;;;22.22;49.63;100070.81;6316128;20;3493981;-55
2023/05/04 10:38:35;;;;;;;;;9.67;8.67;;;;;21.39;50.55;100063.75;6316607;20;3478389;-53
2023/05/04 10:41:17;;;;;;;;;9.67;9.67;;;;;21.55;49.69;100065.78;6310426;20;3499418;-55
2023/05/04 10:43:51;;;;;;;;;10.00;10.00;;;;;21.88;50.43;100071.53;6323943;20;2789894;-53
2023/05/04 10:46:22;;;;;;;;;12.00;10.33;;;;;23.34;48.86;100061.63;6312745;20;3511690;-56
2023/05/04 10:48:50;;;;;;;;;9.67;9.67;;;;;23.67;45.80;100065.25;6314577;20;2778374;-53
2023/05/04 10:51:25;;;;;;;;;15.00;10.67;;;;;23.63;46.51;100058.41;6321322;20;2786798;-54
2023/05/04 10:54:20;;;;;;;;;10.33;8.33;;;;;22.91;47.39;100064.38;6311275;20;2768098;-52
2023/05/04 10:56:48;;;;;;;;;10.00;10.00;;;;;22.16;49.16;100052.28;6315051;20;2780505;-56
2023/05/04 10:59:16;;;;;;;;;8.33;8.33;;;;;22.24;49.44;100049.63;6327686;20;2752933;-57
2023/05/04 11:01:44;;;;;;;;;9.00;9.00;;;;;21.85;50.94;100056.34;6325389;20;2748225;-56
2023/05/04 11:04:21;;;;;;;;;9.50;9.50;;;;;21.39;51.96;100049.25;6320377;20;2661749;-52
2023/05/04 11:07:01;;;;;;;;;9.67;9.67;;;;;21.07;53.45;100042.38;6317547;20;2782799;-50
2023/05/04 11:09:41;;;;;;;;;8.67;8.67;;;;;21.08;52.10;100048.69;6323459;20;2749193;-54
2023/05/04 11:12:12;;;;;;;;;11.33;10.00;;;;;21.11;53.03;100046.50;6315735;20;2791029;-48